createdAt,value
2017-11-07T00:02:03.231Z,95.30
2017-11-07T00:04:29.928Z,95.20
2017-11-07T00:06:56.575Z,94.80
2017-11-07T00:09:23.296Z,94.90
2017-11-07T00:11:50.779Z,95.00
2017-11-07T00:14:17.522Z,95.00
2017-11-07T00:16:44.236Z,95.10
2017-11-07T00:19:10.942Z,95.10
2017-11-07T00:21:37.683Z,95.20
2017-11-07T00:24:04.394Z,95.10
2017-11-07T00:26:31.063Z,95.30
2017-11-07T00:28:57.731Z,95.10
2017-11-07T00:31:24.406Z,95.10
2017-11-07T00:33:51.836Z,95.20
2017-11-07T00:36:18.576Z,95.20
2017-11-07T00:38:45.984Z,95.40
2017-11-07T00:41:12.678Z,95.40
2017-11-07T00:43:39.366Z,95.30
2017-11-07T00:46:06.752Z,95.30
2017-11-07T00:48:33.441Z,95.30
2017-11-07T00:51:00.112Z,95.30
2017-11-07T00:53:27.490Z,95.30
2017-11-07T00:55:54.210Z,95.30
2017-11-07T00:58:21.625Z,95.30
2017-11-07T01:00:48.274Z,95.30
2017-11-07T01:03:14.950Z,95.30
2017-11-07T01:05:42.379Z,95.50
2017-11-07T01:08:09.064Z,95.50
2017-11-07T01:10:35.745Z,95.70
2017-11-07T01:13:02.426Z,95.20
2017-11-07T01:15:29.084Z,95.40
2017-11-07T01:17:56.520Z,95.20
2017-11-07T01:20:23.164Z,95.20
2017-11-07T01:22:49.825Z,95.00
2017-11-07T01:25:17.257Z,94.80
2017-11-07T01:27:43.922Z,94.80
2017-11-07T01:30:11.456Z,95.10
2017-11-07T01:32:38.142Z,95.00
2017-11-07T01:35:05.568Z,95.10
2017-11-07T01:37:32.254Z,95.10
2017-11-07T01:39:58.956Z,94.90
2017-11-07T01:42:25.644Z,94.60
2017-11-07T01:44:52.332Z,94.60
2017-11-07T01:47:19.080Z,94.60
2017-11-07T01:49:45.749Z,94.50
2017-11-07T01:52:13.167Z,94.30
2017-11-07T01:54:39.862Z,94.30
2017-11-07T01:57:07.329Z,94.10
2017-11-07T01:59:34.054Z,94.10
2017-11-07T02:02:01.521Z,94.50
2017-11-07T02:04:28.945Z,94.40
2017-11-07T02:06:55.629Z,94.40
2017-11-07T02:09:23.112Z,94.10
2017-11-07T02:11:49.826Z,94.10
2017-11-07T02:14:17.239Z,94.00
2017-11-07T02:16:43.952Z,94.00
2017-11-07T02:19:10.615Z,93.80
2017-11-07T02:21:37.344Z,93.80
2017-11-07T02:24:04.127Z,93.50
2017-11-07T02:26:30.861Z,93.70
2017-11-07T02:28:57.604Z,93.90
2017-11-07T02:31:24.365Z,94.00
2017-11-07T02:33:51.910Z,93.60
2017-11-07T02:36:18.625Z,93.60
2017-11-07T02:38:45.359Z,93.50
2017-11-07T02:41:12.063Z,93.40
2017-11-07T02:43:38.807Z,93.50
2017-11-07T02:46:05.570Z,93.60
2017-11-07T02:48:33.007Z,94.20
2017-11-07T02:50:59.694Z,94.10
2017-11-07T02:53:26.407Z,94.20
2017-11-07T02:55:53.162Z,94.40
2017-11-07T02:58:19.857Z,94.60
2017-11-07T03:00:46.556Z,94.80
2017-11-07T03:03:13.976Z,94.80
2017-11-07T03:05:40.624Z,94.80
2017-11-07T03:08:07.339Z,94.80
2017-11-07T03:10:34.023Z,95.00
2017-11-07T03:13:00.704Z,95.20
2017-11-07T03:15:27.434Z,95.10
2017-11-07T03:17:54.822Z,95.40
2017-11-07T03:20:21.516Z,95.40
2017-11-07T03:22:48.213Z,95.30
2017-11-07T03:25:14.903Z,95.50
2017-11-07T03:27:41.570Z,95.40
2017-11-07T03:30:09.050Z,95.50
2017-11-07T03:32:35.736Z,95.50
2017-11-07T03:35:02.425Z,95.30
2017-11-07T03:37:29.139Z,95.10
2017-11-07T03:39:55.789Z,95.20
2017-11-07T03:42:22.435Z,95.20
2017-11-07T03:44:49.844Z,95.10
2017-11-07T03:47:16.517Z,95.10
2017-11-07T03:49:43.190Z,95.20
2017-11-07T03:52:10.639Z,94.90
2017-11-07T03:54:38.055Z,94.60
2017-11-07T03:57:04.734Z,94.60
2017-11-07T03:59:32.196Z,94.70
2017-11-07T04:01:58.859Z,94.60
2017-11-07T04:04:26.272Z,94.10
2017-11-07T04:06:52.990Z,94.10
2017-11-07T04:09:19.670Z,94.10
2017-11-07T04:11:46.338Z,94.10
2017-11-07T04:14:13.769Z,94.00
2017-11-07T04:16:40.461Z,93.90
2017-11-07T04:19:07.110Z,94.10
2017-11-07T04:21:33.834Z,94.00
2017-11-07T04:24:01.251Z,93.70
2017-11-07T04:26:27.903Z,93.70
2017-11-07T04:28:54.561Z,94.10
2017-11-07T04:31:21.226Z,93.80
2017-11-07T04:33:48.657Z,94.00
2017-11-07T04:36:15.342Z,94.00
2017-11-07T04:38:42.972Z,93.80
2017-11-07T04:41:09.664Z,93.90
2017-11-07T04:43:36.342Z,93.80
2017-11-07T04:46:03.046Z,93.50
2017-11-07T04:48:29.777Z,93.50
2017-11-07T04:50:56.488Z,93.60
2017-11-07T04:53:23.135Z,93.80
2017-11-07T04:55:50.545Z,93.50
2017-11-07T04:58:17.215Z,93.50
2017-11-07T05:00:43.860Z,93.10
2017-11-07T05:03:10.542Z,93.00
2017-11-07T05:05:37.959Z,93.00
2017-11-07T05:08:04.651Z,93.00
2017-11-07T05:10:31.304Z,92.80
2017-11-07T05:12:57.991Z,92.70
2017-11-07T05:15:24.655Z,93.00
2017-11-07T05:17:52.084Z,93.00
2017-11-07T05:20:19.530Z,92.70
2017-11-07T05:22:46.203Z,92.70
2017-11-07T05:25:12.858Z,93.00
2017-11-07T05:27:39.558Z,92.80
2017-11-07T05:30:06.222Z,92.80
2017-11-07T05:32:32.875Z,92.80
2017-11-07T05:34:59.551Z,92.80
2017-11-07T05:37:26.946Z,92.60
2017-11-07T05:39:53.627Z,92.60
2017-11-07T05:42:20.329Z,92.50
2017-11-07T05:44:46.968Z,92.40
2017-11-07T05:47:13.674Z,92.50
2017-11-07T05:49:41.147Z,92.30
2017-11-07T05:52:08.612Z,92.50
2017-11-07T05:54:35.364Z,92.50
2017-11-07T05:57:02.099Z,92.40
2017-11-07T05:59:28.752Z,92.40
2017-11-07T06:01:55.416Z,92.70
2017-11-07T06:04:22.918Z,92.40
2017-11-07T06:06:50.352Z,92.20
2017-11-07T06:09:17.021Z,92.20
2017-11-07T06:11:44.459Z,92.20
2017-11-07T06:14:11.196Z,92.20
2017-11-07T06:16:37.925Z,92.20
2017-11-07T06:19:04.687Z,92.30
2017-11-07T06:21:31.345Z,92.00
2017-11-07T06:23:58.030Z,91.90
2017-11-07T06:26:24.715Z,92.40
2017-11-07T06:28:51.426Z,91.80
2017-11-07T06:31:18.107Z,91.90
2017-11-07T06:33:44.803Z,91.80
2017-11-07T06:36:11.520Z,91.90
2017-11-07T06:38:38.920Z,91.90
2017-11-07T06:41:05.593Z,92.00
2017-11-07T06:43:32.234Z,91.90
2017-11-07T06:45:58.894Z,91.80
2017-11-07T06:48:25.573Z,91.70
2017-11-07T06:50:52.244Z,91.60
2017-11-07T06:53:18.930Z,91.60
2017-11-07T06:55:45.672Z,91.80
2017-11-07T06:58:12.363Z,92.00
2017-11-07T07:00:39.029Z,91.90
2017-11-07T07:03:05.737Z,91.90
2017-11-07T07:05:32.408Z,92.00
2017-11-07T07:07:59.101Z,92.20
2017-11-07T07:10:26.594Z,92.40
2017-11-07T07:12:53.263Z,92.80
2017-11-07T07:15:19.944Z,92.60
2017-11-07T07:17:47.361Z,92.30
2017-11-07T07:20:14.059Z,92.40
2017-11-07T07:22:41.468Z,92.10
2017-11-07T07:25:08.207Z,92.10
2017-11-07T07:27:34.857Z,91.70
2017-11-07T07:30:01.519Z,91.70
2017-11-07T07:32:28.193Z,91.20
2017-11-07T07:34:54.903Z,91.10
2017-11-07T07:37:21.556Z,90.90
2017-11-07T07:39:48.266Z,90.70
2017-11-07T07:42:14.922Z,91.10
2017-11-07T07:44:41.599Z,90.80
2017-11-07T07:47:09.018Z,90.80
2017-11-07T07:49:35.718Z,90.80
2017-11-07T07:52:02.397Z,91.00
2017-11-07T07:54:29.056Z,91.40
2017-11-07T07:56:55.748Z,91.40
2017-11-07T07:59:22.429Z,91.20
2017-11-07T08:01:49.139Z,91.40
2017-11-07T08:04:17.082Z,91.50
2017-11-07T08:06:44.599Z,91.20
2017-11-07T08:09:11.385Z,91.20
2017-11-07T08:11:38.143Z,91.20
2017-11-07T08:14:05.634Z,90.70
2017-11-07T08:16:32.480Z,90.60
2017-11-07T08:18:59.142Z,90.50
2017-11-07T08:21:25.881Z,89.40
2017-11-07T08:23:52.578Z,89.50
2017-11-07T08:26:19.993Z,90.10
2017-11-07T08:28:46.687Z,90.10
2017-11-07T08:31:14.220Z,89.30
2017-11-07T08:33:41.676Z,89.20
2017-11-07T08:36:08.339Z,88.50
2017-11-07T08:38:36.676Z,88.00
2017-11-07T08:41:03.366Z,88.00
2017-11-07T08:43:30.813Z,87.10
2017-11-07T08:45:57.681Z,87.00
2017-11-07T08:48:25.071Z,87.70
2017-11-07T08:50:52.479Z,87.70
2017-11-07T08:53:19.159Z,88.30
2017-11-07T08:55:45.842Z,87.60
2017-11-07T08:58:12.537Z,87.80
2017-11-07T09:00:39.335Z,87.90
2017-11-07T09:03:06.029Z,87.40
2017-11-07T09:05:33.422Z,88.30
2017-11-07T09:08:00.178Z,88.30
2017-11-07T09:10:26.943Z,87.40
2017-11-07T09:12:53.641Z,87.30
2017-11-07T09:15:20.535Z,86.00
2017-11-07T09:17:47.251Z,84.90
2017-11-07T09:20:14.098Z,83.40
2017-11-07T09:22:40.835Z,82.40
2017-11-07T09:25:07.521Z,81.60
2017-11-07T09:27:34.201Z,80.40
2017-11-07T09:30:00.898Z,81.10
2017-11-07T09:32:27.551Z,79.60
2017-11-07T09:34:54.950Z,80.00
2017-11-07T09:37:21.634Z,80.00
2017-11-07T09:39:48.302Z,79.30
2017-11-07T09:42:15.740Z,79.30
2017-11-07T09:44:42.431Z,79.30
2017-11-07T09:47:09.073Z,78.90
2017-11-07T09:49:35.754Z,78.90
2017-11-07T09:52:02.454Z,78.50
2017-11-07T09:54:29.177Z,80.50
2017-11-07T09:56:56.618Z,82.10
2017-11-07T09:59:23.303Z,82.10
2017-11-07T10:01:49.976Z,81.80
2017-11-07T10:04:16.643Z,83.10
2017-11-07T10:06:43.408Z,82.70
2017-11-07T10:09:10.089Z,82.20
2017-11-07T10:11:36.764Z,82.20
2017-11-07T10:14:03.432Z,81.40
2017-11-07T10:16:30.075Z,82.80
2017-11-07T10:18:56.757Z,81.30
2017-11-07T10:21:23.517Z,80.00
2017-11-07T10:23:50.286Z,81.10
2017-11-07T10:26:17.531Z,80.10
2017-11-07T10:28:44.290Z,80.70
2017-11-07T10:31:11.002Z,80.40
2017-11-07T10:33:38.530Z,82.20
2017-11-07T10:36:06.047Z,82.20
2017-11-07T10:38:32.724Z,82.10
2017-11-07T10:41:00.514Z,83.10
2017-11-07T10:43:27.617Z,84.20
2017-11-07T10:45:54.441Z,84.60
2017-11-07T10:48:21.111Z,84.00
2017-11-07T10:50:47.795Z,84.40
2017-11-07T10:53:14.455Z,84.20
2017-11-07T10:55:41.131Z,83.80
2017-11-07T10:58:07.885Z,84.20
2017-11-07T11:00:34.703Z,84.40
2017-11-07T11:03:01.383Z,84.70
2017-11-07T11:05:28.109Z,84.90
2017-11-07T11:07:55.749Z,83.90
2017-11-07T11:10:22.525Z,81.70
2017-11-07T11:12:49.231Z,81.70
2017-11-07T11:15:15.930Z,81.80
2017-11-07T11:17:42.580Z,81.60
2017-11-07T11:20:10.918Z,81.40
2017-11-07T11:22:37.704Z,81.20
2017-11-07T11:25:05.218Z,80.90
2017-11-07T11:27:31.972Z,80.80
2017-11-07T11:29:58.670Z,80.60
2017-11-07T11:32:26.090Z,79.80
2017-11-07T11:34:52.825Z,79.60
2017-11-07T11:37:19.574Z,80.90
2017-11-07T11:39:47.015Z,80.80
2017-11-07T11:42:13.703Z,81.60
2017-11-07T11:44:40.424Z,80.30
2017-11-07T11:47:07.127Z,79.70
2017-11-07T11:49:33.805Z,80.30
2017-11-07T11:52:00.500Z,80.40
2017-11-07T11:54:27.214Z,81.10
2017-11-07T11:56:55.224Z,82.50
2017-11-07T11:59:21.919Z,82.50
2017-11-07T12:01:48.682Z,83.50
2017-11-07T12:04:16.163Z,82.80
2017-11-07T12:06:43.570Z,83.40
2017-11-07T12:09:10.287Z,83.40
2017-11-07T12:11:36.988Z,84.30
2017-11-07T12:14:03.675Z,85.30
2017-11-07T12:16:30.361Z,85.20
2017-11-07T12:18:57.092Z,83.40
2017-11-07T12:21:23.811Z,83.90
2017-11-07T12:23:50.509Z,84.70
2017-11-07T12:26:18.038Z,84.90
2017-11-07T12:28:44.775Z,84.80
2017-11-07T12:31:12.246Z,86.10
2017-11-07T12:33:38.993Z,86.80
2017-11-07T12:36:05.740Z,88.20
2017-11-07T12:38:32.440Z,87.60
2017-11-07T12:40:59.131Z,88.30
2017-11-07T12:43:25.811Z,89.10
2017-11-07T12:45:53.209Z,90.00
2017-11-07T12:48:19.869Z,90.00
2017-11-07T12:51:05.951Z,90.40
2017-11-07T12:53:32.687Z,89.90
2017-11-07T12:55:59.382Z,90.50
2017-11-07T12:58:26.811Z,91.00
2017-11-07T13:00:54.273Z,91.50
2017-11-07T13:03:20.944Z,91.40
2017-11-07T13:05:48.496Z,92.20
2017-11-07T13:08:15.211Z,92.20
2017-11-07T13:10:41.842Z,92.40
2017-11-07T13:13:08.524Z,92.60
2017-11-07T13:15:35.215Z,92.80
2017-11-07T13:18:01.893Z,92.90
2017-11-07T13:20:28.565Z,92.80
2017-11-07T13:22:55.243Z,93.20
2017-11-07T13:25:21.940Z,93.70
2017-11-07T13:27:48.612Z,93.40
2017-11-07T13:30:16.062Z,93.60
2017-11-07T13:32:43.456Z,93.90
2017-11-07T13:35:10.151Z,93.90
2017-11-07T13:37:36.862Z,94.40
2017-11-07T13:40:03.615Z,94.60
2017-11-07T13:42:30.342Z,94.50
2017-11-07T13:44:57.019Z,94.60
2017-11-07T13:47:23.654Z,94.60
2017-11-07T13:49:50.312Z,94.80
2017-11-07T13:52:16.993Z,94.80
2017-11-07T13:54:43.648Z,94.90
2017-11-07T13:57:10.301Z,95.30
2017-11-07T13:59:36.978Z,95.30
2017-11-07T14:02:03.646Z,95.30
2017-11-07T14:04:31.045Z,95.60
2017-11-07T14:06:57.701Z,95.60
2017-11-07T14:09:24.425Z,95.40
2017-11-07T14:11:51.085Z,95.60
2017-11-07T14:14:17.803Z,95.90
2017-11-07T14:16:44.470Z,95.80
2017-11-07T14:19:11.111Z,95.70
2017-11-07T14:21:37.844Z,96.00
2017-11-07T14:24:04.526Z,96.00
2017-11-07T14:26:31.211Z,96.00
2017-11-07T14:28:57.928Z,96.20
2017-11-07T14:31:25.327Z,96.40
2017-11-07T14:33:51.990Z,96.40
2017-11-07T14:36:18.695Z,96.70
2017-11-07T14:38:45.363Z,96.90
2017-11-07T14:41:12.027Z,97.00
2017-11-07T14:43:38.724Z,97.20
2017-11-07T14:46:05.428Z,97.20
2017-11-07T14:48:32.083Z,97.30
2017-11-07T14:50:59.519Z,97.30
2017-11-07T14:53:26.251Z,97.30
2017-11-07T14:55:52.920Z,96.80
2017-11-07T14:58:19.630Z,96.90
2017-11-07T15:00:46.332Z,97.30
2017-11-07T15:03:14.735Z,98.00
2017-11-07T15:05:41.495Z,98.00
2017-11-07T15:08:08.193Z,97.80
2017-11-07T15:10:35.614Z,97.30
2017-11-07T15:13:02.314Z,97.30
2017-11-07T15:15:29.011Z,97.60
2017-11-07T15:17:55.667Z,97.70
2017-11-07T15:20:22.387Z,97.80
2017-11-07T15:22:49.074Z,97.80
2017-11-07T15:25:16.463Z,97.30
2017-11-07T15:27:43.134Z,97.30
2017-11-07T15:30:09.799Z,97.30
2017-11-07T15:32:37.218Z,98.00
2017-11-07T15:35:03.929Z,98.00
2017-11-07T15:37:30.590Z,98.40
2017-11-07T15:39:57.253Z,98.40
2017-11-07T15:42:23.957Z,98.50
2017-11-07T15:44:50.629Z,99.00
2017-11-07T15:47:17.287Z,99.00
2017-11-07T15:49:44.000Z,99.00
2017-11-07T15:52:10.762Z,99.10
2017-11-07T15:54:37.466Z,98.90
2017-11-07T15:57:04.896Z,99.30
2017-11-07T15:59:31.566Z,99.30
2017-11-07T16:01:58.977Z,99.80
2017-11-07T16:04:25.650Z,99.70
2017-11-07T16:06:52.369Z,99.90
2017-11-07T16:09:19.202Z,99.90
2017-11-07T16:11:45.891Z,99.90
2017-11-07T16:14:12.552Z,99.90
2017-11-07T16:16:39.991Z,99.90
2017-11-07T16:19:06.679Z,99.90
2017-11-07T16:21:33.349Z,99.90
2017-11-07T16:24:00.048Z,99.90
2017-11-07T16:26:26.762Z,99.90
2017-11-07T16:28:53.523Z,99.90
2017-11-07T16:31:20.937Z,99.90
2017-11-07T16:33:47.650Z,99.90
2017-11-07T16:36:14.323Z,99.90
2017-11-07T16:38:41.005Z,99.90
2017-11-07T16:41:08.455Z,99.90
2017-11-07T16:43:35.981Z,99.90
2017-11-07T16:46:02.695Z,99.90
2017-11-07T16:48:29.405Z,99.90
2017-11-07T16:50:56.115Z,99.90
2017-11-07T16:53:22.778Z,99.90
2017-11-07T16:55:49.564Z,99.90
2017-11-07T16:58:17.026Z,99.90
2017-11-07T17:00:44.439Z,99.90
2017-11-07T17:03:11.133Z,99.90
2017-11-07T17:05:37.798Z,99.90
2017-11-07T17:08:04.483Z,99.90
2017-11-07T17:10:31.204Z,99.90
2017-11-07T17:12:57.876Z,99.90
2017-11-07T17:15:24.558Z,99.90
2017-11-07T17:17:51.230Z,99.90
2017-11-07T17:20:17.922Z,99.90
2017-11-07T17:22:45.330Z,99.90
2017-11-07T17:25:12.135Z,99.90
2017-11-07T17:27:38.831Z,99.90
2017-11-07T17:30:05.503Z,99.90
2017-11-07T17:32:32.991Z,99.90
2017-11-07T17:34:59.684Z,99.90
2017-11-07T17:37:26.419Z,99.90
2017-11-07T17:39:53.107Z,99.90
2017-11-07T17:42:20.530Z,99.90
2017-11-07T17:44:47.216Z,99.90
2017-11-07T17:47:14.630Z,99.90
2017-11-07T17:49:41.328Z,99.90
2017-11-07T17:52:08.041Z,99.90
2017-11-07T17:54:35.475Z,99.90
2017-11-07T17:57:02.178Z,99.90
2017-11-07T17:59:28.868Z,99.90
2017-11-07T18:01:55.597Z,99.90
2017-11-07T18:04:23.027Z,99.90
2017-11-07T18:06:49.762Z,99.90
2017-11-07T18:09:16.454Z,99.90
2017-11-07T18:11:43.175Z,99.90
2017-11-07T18:14:09.851Z,99.90
2017-11-07T18:16:36.683Z,99.90
2017-11-07T18:19:03.879Z,99.90
2017-11-07T18:21:31.307Z,99.90
2017-11-07T18:23:58.067Z,99.90
2017-11-07T18:26:24.776Z,99.90
2017-11-07T18:28:51.450Z,99.90
2017-11-07T18:31:18.258Z,99.90
2017-11-07T18:33:44.998Z,99.90
2017-11-07T18:36:11.695Z,99.90
2017-11-07T18:38:39.124Z,99.90
2017-11-07T18:41:05.852Z,99.90
2017-11-07T18:43:32.540Z,99.90
2017-11-07T18:45:59.978Z,99.90
2017-11-07T18:48:26.669Z,99.90
2017-11-07T18:50:53.343Z,99.90
2017-11-07T18:53:20.861Z,99.90
2017-11-07T18:55:48.346Z,99.90
2017-11-07T18:58:15.052Z,99.90
2017-11-07T19:00:41.785Z,99.90
2017-11-07T19:03:08.455Z,99.90
2017-11-07T19:05:35.181Z,99.90
2017-11-07T19:08:02.658Z,99.90
2017-11-07T19:10:30.270Z,99.90
2017-11-07T19:12:57.001Z,99.90
2017-11-07T19:15:23.721Z,99.90
2017-11-07T19:17:50.750Z,99.90
2017-11-07T19:20:19.352Z,99.90
2017-11-07T19:22:47.494Z,99.90
2017-11-07T19:25:14.295Z,99.90
2017-11-07T19:27:41.005Z,99.90
2017-11-07T19:30:08.491Z,99.90
2017-11-07T19:32:35.275Z,99.90
2017-11-07T19:35:02.038Z,99.90
2017-11-07T19:37:28.757Z,99.90
2017-11-07T19:39:55.480Z,99.90
2017-11-07T19:42:22.219Z,99.90
2017-11-07T19:44:48.961Z,99.90
2017-11-07T19:47:15.697Z,99.90
2017-11-07T19:49:43.503Z,99.90
2017-11-07T19:52:10.385Z,99.90
2017-11-07T19:54:37.971Z,99.80
2017-11-07T19:57:05.390Z,99.80
2017-11-07T19:59:32.160Z,99.80
2017-11-07T20:01:59.725Z,99.70
2017-11-07T20:04:26.518Z,99.50
2017-11-07T20:06:54.326Z,99.60
2017-11-07T20:09:21.044Z,99.70
2017-11-07T20:11:47.728Z,99.60
2017-11-07T20:14:15.182Z,99.50
2017-11-07T20:16:42.005Z,99.50
2017-11-07T20:19:08.736Z,99.40
2017-11-07T20:21:36.205Z,99.50
2017-11-07T20:24:04.766Z,99.30
2017-11-07T20:26:31.460Z,99.30
2017-11-07T20:28:58.192Z,99.50
2017-11-07T20:31:24.904Z,99.40
2017-11-07T20:33:52.469Z,99.00
2017-11-07T20:36:19.263Z,99.40
2017-11-07T20:38:46.316Z,99.30
2017-11-07T20:41:13.950Z,99.10
2017-11-07T20:43:41.610Z,99.00
2017-11-07T20:46:08.380Z,99.10
2017-11-07T20:48:35.138Z,99.20
2017-11-07T20:51:02.656Z,99.50
2017-11-07T20:53:30.058Z,99.30
2017-11-07T20:55:56.726Z,99.30
2017-11-07T20:58:24.060Z,99.40
2017-11-07T21:00:51.506Z,99.30
2017-11-07T21:03:18.189Z,99.30
2017-11-07T21:05:44.942Z,99.00
2017-11-07T21:08:11.802Z,99.10
2017-11-07T21:10:38.576Z,99.10
2017-11-07T21:13:05.648Z,99.00
2017-11-07T21:15:33.083Z,98.90
2017-11-07T21:17:59.773Z,98.90
2017-11-07T21:20:26.482Z,99.10
2017-11-07T21:22:53.197Z,99.00
2017-11-07T21:25:19.974Z,98.80
2017-11-07T21:27:46.719Z,98.90
2017-11-07T21:30:13.441Z,98.80
2017-11-07T21:32:41.068Z,98.80
2017-11-07T21:35:07.823Z,98.70
2017-11-07T21:37:35.151Z,98.60
2017-11-07T21:40:02.612Z,98.90
2017-11-07T21:42:30.050Z,98.80
2017-11-07T21:44:56.762Z,98.80
2017-11-07T21:47:23.447Z,98.80
2017-11-07T21:49:50.156Z,98.60
2017-11-07T21:52:16.903Z,98.70
2017-11-07T21:54:43.596Z,98.80
2017-11-07T21:57:11.081Z,98.80
2017-11-07T21:59:37.767Z,98.80
2017-11-07T22:02:04.502Z,99.00
2017-11-07T22:04:31.180Z,98.70
2017-11-07T22:06:58.581Z,98.70
2017-11-07T22:09:26.254Z,98.70
2017-11-07T22:11:53.746Z,99.00
2017-11-07T22:14:20.508Z,99.10
2017-11-07T22:16:52.752Z,99.30
2017-11-07T22:19:20.380Z,99.30
2017-11-07T22:21:48.980Z,99.20
2017-11-07T22:24:15.669Z,99.30
2017-11-07T22:26:42.386Z,99.70
2017-11-07T22:29:09.952Z,99.20
2017-11-07T22:31:36.676Z,99.40
2017-11-07T22:34:04.152Z,99.50
2017-11-07T22:36:30.812Z,99.30
2017-11-07T22:38:57.473Z,99.30
2017-11-07T22:41:24.258Z,99.40
2017-11-07T22:43:51.921Z,99.30
2017-11-07T22:46:18.591Z,99.50
2017-11-07T22:48:46.284Z,99.70
2017-11-07T22:51:12.969Z,99.80
2017-11-07T22:53:39.633Z,99.80
2017-11-07T22:56:06.320Z,99.80
2017-11-07T22:58:33.712Z,99.70
2017-11-07T23:01:00.376Z,99.70
2017-11-07T23:03:27.057Z,99.60
2017-11-07T23:05:53.730Z,99.50
2017-11-07T23:08:20.404Z,99.70
2017-11-07T23:10:47.381Z,99.50
2017-11-07T23:13:19.141Z,99.50
2017-11-07T23:15:45.915Z,99.50
2017-11-07T23:18:13.361Z,99.50
2017-11-07T23:20:40.041Z,99.50
2017-11-07T23:23:06.718Z,99.60
2017-11-07T23:25:33.458Z,99.60
2017-11-07T23:28:00.124Z,99.80
2017-11-07T23:30:26.836Z,99.80
2017-11-07T23:32:53.501Z,99.90
2017-11-07T23:35:20.154Z,99.90
2017-11-07T23:37:46.853Z,99.90
2017-11-07T23:40:13.553Z,99.90
2017-11-07T23:42:40.684Z,99.90
2017-11-07T23:45:07.347Z,99.80
2017-11-07T23:47:34.806Z,99.70
2017-11-07T23:50:04.907Z,99.70
2017-11-07T23:52:31.623Z,99.70
2017-11-07T23:54:58.406Z,99.60
2017-11-07T23:57:25.121Z,99.60
2017-11-07T23:59:51.799Z,99.60
